Wetterdaten: Woche 03.05.10 - 09.05.10 (KW18)
Datum Zeit Temp. Innen Temp. Aussen UV X Diff Temp. Feuchte Inne Feuchte Auss Sonnenschein Luftdruck Regen ab 0,1 Wind Sonnenschein Windben
03.05.2010 00:00 18,2 C 7,8 C 0,0 UV-I 0,0 C 54 % 92 % 0 % 1009,1 hPa 0,0 l/m 0,0 km/h (0 Bft) 0,00 h 0,0 km/h (0 Bft)
03.05.2010 01:00 18,1 C 7,1 C 0,0 UV-I 0,0 C 54 % 93 % 0 % 1009,1 hPa 0,0 l/m 0,0 km/h (0 Bft) 0,00 h 0,0 km/h (0 Bft)
03.05.2010 02:00 18,0 C 6,4 C 0,0 UV-I 0,0 C 54 % 93 % 0 % 1009,1 hPa 0,0 l/m 0,2 km/h (0 Bft) 0,00 h 0,2 km/h (0 Bft)
03.05.2010 03:00 17,8 C 6,1 C 0,0 UV-I 0,0 C 53 % 94 % 0 % 1009,2 hPa 0,0 l/m 0,0 km/h (0 Bft) 0,00 h 0,0 km/h (0 Bft)
03.05.2010 04:00 17,9 C 7,0 C 0,0 UV-I 0,0 C 54 % 95 % 0 % 1009,4 hPa 0,0 l/m 0,0 km/h (0 Bft) 0,00 h 0,2 km/h (0 Bft)
03.05.2010 05:00 17,8 C 7,5 C 0,0 UV-I 0,0 C 54 % 95 % 0 % 1009,7 hPa 0,0 l/m 1,7 km/h (1 Bft) 0,00 h 4,3 km/h (1 Bft)
03.05.2010 06:00 17,8 C 7,1 C 0,0 UV-I 0,0 C 54 % 95 % 0 % 1010,1 hPa 0,0 l/m 2,1 km/h (1 Bft) 0,00 h 2,7 km/h (1 Bft)
03.05.2010 07:00 17,8 C 6,9 C 0,0 UV-I 0,0 C 53 % 94 % 0 % 1010,5 hPa 0,0 l/m 1,2 km/h (1 Bft) 0,00 h 1,8 km/h (1 Bft)
03.05.2010 08:00 17,7 C 6,9 C 0,2 UV-I 0,0 C 53 % 92 % 0 % 1010,9 hPa 0,0 l/m 2,4 km/h (1 Bft) 0,00 h 4,0 km/h (1 Bft)
03.05.2010 09:00 17,8 C 7,3 C 1,4 UV-I 1,1 C 52 % 90 % 30 % 1011,2 hPa 0,0 l/m 2,4 km/h (1 Bft) 0,00 h 4,0 km/h (1 Bft)
03.05.2010 10:00 18,0 C 7,7 C 1,7 UV-I 1,3 C 51 % 87 % 38 % 1011,7 hPa 0,0 l/m 3,3 km/h (1 Bft) 0,00 h 4,9 km/h (1 Bft)
03.05.2010 11:00 18,0 C 8,2 C 1,4 UV-I 1,1 C 51 % 86 % 32 % 1012,1 hPa 0,0 l/m 1,2 km/h (1 Bft) 0,00 h 3,2 km/h (1 Bft)
03.05.2010 12:00 18,1 C 9,3 C 3,6 UV-I 2,8 C 50 % 81 % 75 % 1012,5 hPa 0,0 l/m 2,9 km/h (1 Bft) 0,37 h 5,5 km/h (1 Bft)
03.05.2010 13:00 18,2 C 9,5 C 2,9 UV-I 1,7 C 49 % 80 % 49 % 1012,5 hPa 0,0 l/m 3,4 km/h (1 Bft) 0,07 h 5,6 km/h (1 Bft)
03.05.2010 14:00 18,3 C 9,9 C 2,0 UV-I 1,6 C 49 % 80 % 45 % 1012,7 hPa 0,0 l/m 2,5 km/h (1 Bft) 0,10 h 3,4 km/h (1 Bft)
03.05.2010 15:00 18,2 C 10,0 C 2,0 UV-I 1,2 C 49 % 79 % 35 % 1013,2 hPa 0,0 l/m 2,5 km/h (1 Bft) 0,00 h 3,4 km/h (1 Bft)
03.05.2010 16:00 18,2 C 10,0 C 1,2 UV-I 0,8 C 49 % 79 % 23 % 1013,7 hPa 0,0 l/m 2,0 km/h (1 Bft) 0,00 h 3,0 km/h (1 Bft)
03.05.2010 17:00 18,0 C 9,8 C 0,4 UV-I 0,2 C 50 % 80 % 7 % 1013,9 hPa 0,0 l/m 1,3 km/h (1 Bft) 0,00 h 2,2 km/h (1 Bft)
03.05.2010 18:00 18,0 C 10,0 C 0,1 UV-I 0,2 C 50 % 80 % 6 % 1014,2 hPa 0,0 l/m 1,8 km/h (1 Bft) 0,00 h 3,1 km/h (1 Bft)
03.05.2010 19:00 17,9 C 9,7 C 0,0 UV-I 0,0 C 51 % 83 % 0 % 1014,7 hPa 0,0 l/m 0,9 km/h (0 Bft) 0,00 h 2,0 km/h (1 Bft)
03.05.2010 20:00 17,8 C 9,3 C 0,0 UV-I 0,0 C 52 % 86 % 0 % 1015,4 hPa 0,0 l/m 0,9 km/h (0 Bft) 0,00 h 1,4 km/h (1 Bft)
03.05.2010 21:00 17,6 C 8,9 C 0,0 UV-I 0,0 C 52 % 88 % 0 % 1016,6 hPa 0,0 l/m 6,5 km/h (2 Bft) 0,00 h 11,6 km/h (2 Bft)
03.05.2010 22:00 17,5 C 8,4 C 0,0 UV-I 0,0 C 53 % 90 % 0 % 1017,0 hPa 0,0 l/m 11,3 km/h (2 Bft) 0,00 h 14,4 km/h (3 Bft)
03.05.2010 23:00 17,4 C 8,1 C 0,0 UV-I 0,0 C 53 % 90 % 0 % 1017,6 hPa 0,0 l/m 10,5 km/h (2 Bft) 0,00 h 12,7 km/h (3 Bft)
04.05.2010 00:00 17,3 C 7,7 C 0,0 UV-I 0,0 C 53 % 90 % 0 % 1018,3 hPa 0,0 l/m 13,4 km/h (3 Bft) 0,00 h 18,7 km/h (3 Bft)
04.05.2010 01:00 17,2 C 7,2 C 0,0 UV-I 0,0 C 53 % 89 % 0 % 1018,8 hPa 0,0 l/m 13,3 km/h (3 Bft) 0,00 h 21,4 km/h (4 Bft)
04.05.2010 02:00 17,2 C 7,2 C 0,0 UV-I 0,0 C 53 % 89 % 0 % 1019,1 hPa 0,0 l/m 10,2 km/h (2 Bft) 0,00 h 16,2 km/h (3 Bft)
04.05.2010 03:00 17,1 C 7,3 C 0,0 UV-I 0,0 C 53 % 90 % 0 % 1019,4 hPa 0,0 l/m 10,6 km/h (2 Bft) 0,00 h 15,7 km/h (3 Bft)
04.05.2010 04:00 17,1 C 7,3 C 0,0 UV-I 0,0 C 53 % 90 % 0 % 1019,6 hPa 0,0 l/m 9,0 km/h (2 Bft) 0,00 h 10,4 km/h (2 Bft)
04.05.2010 05:00 17,0 C 7,3 C 0,0 UV-I 0,0 C 53 % 89 % 0 % 1019,9 hPa 0,0 l/m 10,3 km/h (2 Bft) 0,00 h 13,9 km/h (3 Bft)
04.05.2010 06:00 17,0 C 6,9 C 0,0 UV-I 0,0 C 53 % 88 % 0 % 1020,5 hPa 0,0 l/m 13,6 km/h (3 Bft) 0,00 h 17,2 km/h (3 Bft)
04.05.2010 07:00 16,9 C 6,9 C 0,5 UV-I 0,0 C 53 % 88 % 0 % 1021,0 hPa 0,0 l/m 12,2 km/h (2 Bft) 0,00 h 15,1 km/h (3 Bft)
04.05.2010 08:00 17,0 C 7,2 C 1,6 UV-I 0,0 C 52 % 87 % 0 % 1021,4 hPa 0,0 l/m 15,1 km/h (3 Bft) 0,00 h 21,2 km/h (4 Bft)
04.05.2010 09:00 17,0 C 7,2 C 0,7 UV-I 0,0 C 52 % 85 % 0 % 1021,9 hPa 0,0 l/m 13,4 km/h (3 Bft) 0,00 h 15,1 km/h (3 Bft)
04.05.2010 10:00 17,1 C 7,6 C 2,1 UV-I 0,2 C 51 % 82 % 7 % 1022,3 hPa 0,0 l/m 14,8 km/h (3 Bft) 0,00 h 19,0 km/h (3 Bft)
04.05.2010 11:00 17,3 C 8,6 C 3,7 UV-I 1,5 C 51 % 76 % 44 % 1022,5 hPa 0,0 l/m 11,8 km/h (2 Bft) 0,00 h 17,1 km/h (3 Bft)
04.05.2010 12:00 17,5 C 9,6 C 5,1 UV-I 2,0 C 49 % 70 % 56 % 1022,5 hPa 0,0 l/m 16,5 km/h (3 Bft) 0,23 h 22,6 km/h (4 Bft)
04.05.2010 13:00 17,6 C 9,9 C 3,6 UV-I 0,8 C 48 % 66 % 22 % 1022,4 hPa 0,0 l/m 15,4 km/h (3 Bft) 0,00 h 18,8 km/h (3 Bft)
04.05.2010 14:00 17,9 C 10,8 C 5,8 UV-I 2,0 C 47 % 60 % 58 % 1022,5 hPa 0,0 l/m 17,1 km/h (3 Bft) 0,17 h 24,2 km/h (4 Bft)
04.05.2010 15:00 18,7 C 11,6 C 6,3 UV-I 2,6 C 44 % 55 % 73 % 1023,1 hPa 0,0 l/m 14,8 km/h (3 Bft) 0,33 h 19,1 km/h (3 Bft)
04.05.2010 16:00 19,9 C 12,4 C 8,4 UV-I 2,8 C 41 % 50 % 80 % 1023,8 hPa 0,0 l/m 19,6 km/h (3 Bft) 0,43 h 25,0 km/h (4 Bft)
04.05.2010 17:00 21,3 C 13,1 C 8,5 UV-I 3,6 C 38 % 47 % 95 % 1024,6 hPa 0,0 l/m 17,9 km/h (3 Bft) 0,87 h 23,3 km/h (4 Bft)
04.05.2010 18:00 20,9 C 12,5 C 2,7 UV-I 0,9 C 37 % 47 % 27 % 1023,4 hPa 0,0 l/m 20,8 km/h (4 Bft) 0,03 h 28,1 km/h (4 Bft)
04.05.2010 19:00 19,4 C 11,6 C 1,2 UV-I 0,0 C 39 % 48 % 0 % 1021,7 hPa 0,0 l/m 17,0 km/h (3 Bft) 0,00 h 22,2 km/h (4 Bft)
04.05.2010 20:00 18,4 C 10,4 C 0,2 UV-I 0,0 C 40 % 53 % 0 % 1021,7 hPa 0,0 l/m 15,7 km/h (3 Bft) 0,00 h 19,9 km/h (4 Bft)
04.05.2010 21:00 17,7 C 9,1 C 0,0 UV-I 0,0 C 42 % 58 % 0 % 1022,1 hPa 0,0 l/m 12,2 km/h (2 Bft) 0,00 h 15,9 km/h (3 Bft)
04.05.2010 22:00 17,4 C 7,8 C 0,0 UV-I 0,0 C 43 % 65 % 0 % 1022,3 hPa 0,0 l/m 7,2 km/h (2 Bft) 0,00 h 8,2 km/h (2 Bft)
04.05.2010 23:00 17,2 C 6,6 C 0,0 UV-I 0,0 C 44 % 70 % 0 % 1022,4 hPa 0,0 l/m 5,3 km/h (1 Bft) 0,00 h 6,4 km/h (2 Bft)
05.05.2010 00:00 17,0 C 5,7 C 0,0 UV-I 0,0 C 45 % 74 % 0 % 1022,3 hPa 0,0 l/m 6,0 km/h (2 Bft) 0,00 h 7,9 km/h (2 Bft)
05.05.2010 01:00 16,8 C 5,0 C 0,0 UV-I 0,0 C 45 % 78 % 0 % 1022,2 hPa 0,0 l/m 5,7 km/h (1 Bft) 0,00 h 6,7 km/h (2 Bft)
05.05.2010 02:00 16,7 C 4,6 C 0,0 UV-I 0,0 C 45 % 80 % 0 % 1021,9 hPa 0,0 l/m 3,1 km/h (1 Bft) 0,00 h 4,5 km/h (1 Bft)
05.05.2010 03:00 16,5 C 3,4 C 0,0 UV-I 0,0 C 45 % 82 % 0 % 1022,0 hPa 0,0 l/m 0,0 km/h (0 Bft) 0,00 h 0,0 km/h (0 Bft)
05.05.2010 04:00 16,3 C 2,3 C 0,0 UV-I 0,0 C 45 % 85 % 0 % 1022,0 hPa 0,0 l/m 0,0 km/h (0 Bft) 0,00 h 0,0 km/h (0 Bft)
05.05.2010 05:00 16,2 C 1,7 C 0,0 UV-I 0,0 C 45 % 88 % 0 % 1021,0 hPa 0,0 l/m 0,0 km/h (0 Bft) 0,00 h 0,0 km/h (0 Bft)
05.05.2010 06:00 16,0 C 1,6 C 0,0 UV-I 0,0 C 45 % 90 % 0 % 1020,7 hPa 0,0 l/m 0,0 km/h (0 Bft) 0,00 h 0,0 km/h (0 Bft)
05.05.2010 07:00 16,0 C 2,5 C 0,3 UV-I 0,0 C 46 % 90 % 0 % 1021,2 hPa 0,0 l/m 1,4 km/h (1 Bft) 0,00 h 2,3 km/h (1 Bft)
05.05.2010 08:00 16,1 C 4,4 C 1,1 UV-I 1,3 C 46 % 88 % 37 % 1021,3 hPa 0,0 l/m 3,2 km/h (1 Bft) 0,13 h 4,1 km/h (1 Bft)
05.05.2010 09:00 16,4 C 6,7 C 3,7 UV-I 2,8 C 47 % 81 % 75 % 1021,3 hPa 0,0 l/m 3,3 km/h (1 Bft) 0,43 h 6,1 km/h (2 Bft)
05.05.2010 10:00 16,7 C 9,0 C 8,2 UV-I 5,2 C 47 % 70 % 100 % 1021,0 hPa 0,0 l/m 7,5 km/h (2 Bft) 1,00 h 11,5 km/h (2 Bft)
05.05.2010 11:00 17,0 C 9,8 C 7,1 UV-I 3,8 C 47 % 65 % 99 % 1020,5 hPa 0,0 l/m 9,0 km/h (2 Bft) 1,00 h 11,6 km/h (2 Bft)
05.05.2010 12:00 17,2 C 10,3 C 5,6 UV-I 2,8 C 46 % 63 % 79 % 1019,8 hPa 0,0 l/m 12,1 km/h (2 Bft) 0,43 h 14,9 km/h (3 Bft)
05.05.2010 13:00 17,5 C 10,8 C 5,7 UV-I 2,5 C 45 % 62 % 71 % 1018,8 hPa 0,0 l/m 15,3 km/h (3 Bft) 0,47 h 18,9 km/h (3 Bft)
05.05.2010 14:00 18,1 C 11,9 C 8,2 UV-I 3,7 C 43 % 58 % 92 % 1019,2 hPa 0,0 l/m 15,0 km/h (3 Bft) 0,80 h 19,8 km/h (3 Bft)
05.05.2010 15:00 19,8 C 12,9 C 9,1 UV-I 4,1 C 40 % 52 % 100 % 1019,7 hPa 0,0 l/m 16,1 km/h (3 Bft) 1,00 h 22,8 km/h (4 Bft)
05.05.2010 16:00 21,6 C 13,2 C 10,7 UV-I 3,4 C 36 % 50 % 94 % 1020,0 hPa 0,0 l/m 19,2 km/h (3 Bft) 0,83 h 26,8 km/h (4 Bft)
05.05.2010 17:00 22,2 C 13,2 C 8,4 UV-I 3,4 C 34 % 48 % 94 % 1019,4 hPa 0,0 l/m 16,4 km/h (3 Bft) 0,90 h 23,2 km/h (4 Bft)
05.05.2010 18:00 21,3 C 12,9 C 3,4 UV-I 1,3 C 35 % 49 % 36 % 1016,8 hPa 0,0 l/m 15,1 km/h (3 Bft) 0,10 h 20,1 km/h (4 Bft)
05.05.2010 19:00 19,8 C 12,4 C 1,4 UV-I 0,0 C 37 % 50 % 0 % 1014,4 hPa 0,0 l/m 14,2 km/h (3 Bft) 0,00 h 17,7 km/h (3 Bft)
05.05.2010 20:00 18,8 C 11,4 C 0,2 UV-I 0,0 C 39 % 53 % 0 % 1013,3 hPa 0,0 l/m 13,6 km/h (3 Bft) 0,00 h 15,8 km/h (3 Bft)
05.05.2010 21:00 18,1 C 10,0 C 0,0 UV-I 0,0 C 40 % 56 % 0 % 1013,1 hPa 0,0 l/m 7,8 km/h (2 Bft) 0,00 h 7,0 km/h (2 Bft)
05.05.2010 22:00 17,6 C 8,7 C 0,0 UV-I 0,0 C 42 % 58 % 0 % 1012,5 hPa 0,0 l/m 8,1 km/h (2 Bft) 0,00 h 7,7 km/h (2 Bft)
05.05.2010 23:00 17,3 C 7,8 C 0,0 UV-I 0,0 C 42 % 61 % 0 % 1012,0 hPa 0,0 l/m 6,8 km/h (2 Bft) 0,00 h 6,6 km/h (2 Bft)
06.05.2010 00:00 17,1 C 6,9 C 0,0 UV-I 0,0 C 43 % 66 % 0 % 1011,4 hPa 0,0 l/m 6,9 km/h (2 Bft) 0,00 h 6,7 km/h (2 Bft)
06.05.2010 01:00 16,9 C 6,4 C 0,0 UV-I 0,0 C 43 % 69 % 0 % 1010,7 hPa 0,0 l/m 8,1 km/h (2 Bft) 0,00 h 7,9 km/h (2 Bft)
06.05.2010 02:00 16,7 C 6,0 C 0,0 UV-I 0,0 C 43 % 71 % 0 % 1010,0 hPa 0,0 l/m 10,6 km/h (2 Bft) 0,00 h 12,2 km/h (2 Bft)
06.05.2010 03:00 16,6 C 6,0 C 0,0 UV-I 0,0 C 43 % 73 % 0 % 1009,1 hPa 0,0 l/m 11,4 km/h (2 Bft) 0,00 h 10,8 km/h (2 Bft)
06.05.2010 04:00 16,5 C 6,1 C 0,0 UV-I 0,0 C 44 % 74 % 0 % 1008,2 hPa 0,0 l/m 10,3 km/h (2 Bft) 0,00 h 9,8 km/h (2 Bft)
06.05.2010 05:00 16,4 C 5,7 C 0,0 UV-I 0,0 C 44 % 76 % 0 % 1007,8 hPa 0,0 l/m 8,4 km/h (2 Bft) 0,00 h 7,5 km/h (2 Bft)
06.05.2010 06:00 16,3 C 5,2 C 0,0 UV-I 0,0 C 44 % 79 % 0 % 1007,5 hPa 0,0 l/m 9,6 km/h (2 Bft) 0,00 h 9,3 km/h (2 Bft)
06.05.2010 07:00 16,3 C 5,7 C 0,3 UV-I 0,0 C 45 % 79 % 0 % 1007,2 hPa 0,0 l/m 10,3 km/h (2 Bft) 0,00 h 10,6 km/h (2 Bft)
06.05.2010 08:00 16,4 C 7,0 C 1,6 UV-I 0,1 C 45 % 77 % 3 % 1007,2 hPa 0,0 l/m 11,8 km/h (2 Bft) 0,00 h 12,9 km/h (3 Bft)
06.05.2010 09:00 16,5 C 8,0 C 2,8 UV-I 0,7 C 45 % 74 % 19 % 1006,9 hPa 0,0 l/m 13,5 km/h (3 Bft) 0,00 h 14,1 km/h (3 Bft)
06.05.2010 10:00 16,7 C 9,6 C 2,4 UV-I 1,0 C 45 % 69 % 28 % 1006,7 hPa 0,0 l/m 11,9 km/h (2 Bft) 0,00 h 12,4 km/h (3 Bft)
06.05.2010 11:00 16,8 C 10,0 C 2,9 UV-I 0,7 C 45 % 67 % 20 % 1006,3 hPa 0,0 l/m 13,3 km/h (3 Bft) 0,00 h 14,4 km/h (3 Bft)
06.05.2010 12:00 16,9 C 10,4 C 2,5 UV-I 0,6 C 44 % 68 % 18 % 1006,2 hPa 0,0 l/m 12,2 km/h (2 Bft) 0,00 h 13,3 km/h (3 Bft)
06.05.2010 13:00 17,0 C 9,7 C 3,0 UV-I 0,1 C 45 % 76 % 3 % 1006,1 hPa 0,4 l/m 13,0 km/h (3 Bft) 0,00 h 14,3 km/h (3 Bft)
06.05.2010 14:00 16,9 C 9,4 C 2,0 UV-I 0,0 C 46 % 80 % 0 % 1005,6 hPa 0,2 l/m 15,4 km/h (3 Bft) 0,00 h 15,9 km/h (3 Bft)
06.05.2010 15:00 16,8 C 9,3 C 1,4 UV-I 0,0 C 47 % 80 % 0 % 1005,5 hPa 0,3 l/m 15,2 km/h (3 Bft) 0,00 h 17,7 km/h (3 Bft)
06.05.2010 16:00 16,8 C 9,0 C 0,7 UV-I 0,0 C 48 % 85 % 0 % 1005,4 hPa 1,0 l/m 13,0 km/h (3 Bft) 0,00 h 12,1 km/h (2 Bft)
06.05.2010 17:00 16,7 C 8,7 C 0,5 UV-I 0,0 C 50 % 89 % 0 % 1005,4 hPa 1,0 l/m 8,5 km/h (2 Bft) 0,00 h 8,6 km/h (2 Bft)
06.05.2010 18:00 16,6 C 8,6 C 0,6 UV-I 0,0 C 51 % 89 % 0 % 1005,5 hPa 0,2 l/m 10,1 km/h (2 Bft) 0,00 h 10,6 km/h (2 Bft)
06.05.2010 19:00 16,6 C 8,7 C 0,0 UV-I 0,0 C 51 % 88 % 0 % 1005,3 hPa 0,1 l/m 8,8 km/h (2 Bft) 0,00 h 8,8 km/h (2 Bft)
06.05.2010 20:00 16,5 C 8,2 C 0,0 UV-I 0,0 C 51 % 89 % 0 % 1005,6 hPa 0,6 l/m 6,0 km/h (2 Bft) 0,00 h 5,5 km/h (1 Bft)
06.05.2010 21:00 16,4 C 7,6 C 0,0 UV-I 0,0 C 52 % 90 % 0 % 1005,9 hPa 0,1 l/m 6,1 km/h (2 Bft) 0,00 h 6,5 km/h (2 Bft)
06.05.2010 22:00 16,3 C 7,4 C 0,0 UV-I 0,0 C 52 % 91 % 0 % 1005,8 hPa 0,5 l/m 4,0 km/h (1 Bft) 0,00 h 3,9 km/h (1 Bft)
06.05.2010 23:00 16,2 C 7,1 C 0,0 UV-I 0,0 C 52 % 92 % 0 % 1006,0 hPa 1,2 l/m 3,2 km/h (1 Bft) 0,00 h 3,5 km/h (1 Bft)
07.05.2010 00:00 16,2 C 6,8 C 0,0 UV-I 0,0 C 52 % 92 % 0 % 1006,1 hPa 0,2 l/m 5,2 km/h (1 Bft) 0,00 h 5,8 km/h (2 Bft)
07.05.2010 01:00 16,1 C 6,5 C 0,0 UV-I 0,0 C 52 % 92 % 0 % 1005,8 hPa 0,5 l/m 7,0 km/h (2 Bft) 0,00 h 8,1 km/h (2 Bft)
07.05.2010 02:00 16,1 C 6,2 C 0,0 UV-I 0,0 C 52 % 92 % 0 % 1005,6 hPa 0,3 l/m 8,2 km/h (2 Bft) 0,00 h 8,8 km/h (2 Bft)
07.05.2010 03:00 16,0 C 5,6 C 0,0 UV-I 0,0 C 52 % 91 % 0 % 1005,5 hPa 0,8 l/m 9,1 km/h (2 Bft) 0,00 h 9,3 km/h (2 Bft)
07.05.2010 04:00 15,9 C 5,3 C 0,0 UV-I 0,0 C 52 % 92 % 0 % 1005,6 hPa 0,9 l/m 5,6 km/h (1 Bft) 0,00 h 6,4 km/h (2 Bft)
07.05.2010 05:00 15,9 C 5,1 C 0,0 UV-I 0,0 C 52 % 93 % 0 % 1005,6 hPa 0,6 l/m 6,3 km/h (2 Bft) 0,00 h 6,5 km/h (2 Bft)
07.05.2010 06:00 15,8 C 4,7 C 0,0 UV-I 0,0 C 52 % 93 % 0 % 1005,9 hPa 0,3 l/m 8,3 km/h (2 Bft) 0,00 h 7,5 km/h (2 Bft)
07.05.2010 07:00 15,7 C 4,7 C 0,2 UV-I 0,0 C 51 % 93 % 0 % 1006,0 hPa 0,4 l/m 6,6 km/h (2 Bft) 0,00 h 7,1 km/h (2 Bft)
07.05.2010 08:00 15,8 C 4,8 C 0,5 UV-I 0,0 C 51 % 93 % 0 % 1006,2 hPa 0,7 l/m 6,0 km/h (2 Bft) 0,00 h 7,4 km/h (2 Bft)
07.05.2010 09:00 15,8 C 5,2 C 1,9 UV-I 0,2 C 51 % 92 % 6 % 1006,5 hPa 0,4 l/m 6,8 km/h (2 Bft) 0,00 h 7,1 km/h (2 Bft)
07.05.2010 10:00 16,0 C 5,8 C 2,8 UV-I 0,6 C 51 % 91 % 16 % 1006,7 hPa 0,3 l/m 5,7 km/h (1 Bft) 0,00 h 6,9 km/h (2 Bft)
07.05.2010 11:00 16,3 C 6,5 C 3,0 UV-I 0,9 C 50 % 90 % 27 % 1007,0 hPa 0,4 l/m 4,8 km/h (1 Bft) 0,00 h 5,0 km/h (1 Bft)
07.05.2010 12:00 16,5 C 7,4 C 3,1 UV-I 1,6 C 50 % 88 % 47 % 1007,2 hPa 0,1 l/m 2,5 km/h (1 Bft) 0,00 h 2,5 km/h (1 Bft)
07.05.2010 13:00 16,5 C 7,7 C 2,2 UV-I 1,1 C 50 % 86 % 31 % 1007,4 hPa 0,0 l/m 2,2 km/h (1 Bft) 0,00 h 3,0 km/h (1 Bft)
07.05.2010 14:00 16,4 C 7,7 C 1,4 UV-I 0,4 C 50 % 86 % 10 % 1007,6 hPa 0,1 l/m 1,7 km/h (1 Bft) 0,00 h 2,1 km/h (1 Bft)
07.05.2010 15:00 16,4 C 8,0 C 2,0 UV-I 0,8 C 50 % 86 % 23 % 1007,6 hPa 0,1 l/m 1,2 km/h (1 Bft) 0,00 h 1,8 km/h (1 Bft)
07.05.2010 16:00 16,4 C 8,2 C 1,2 UV-I 0,4 C 50 % 87 % 12 % 1007,6 hPa 0,2 l/m 0,4 km/h (0 Bft) 0,00 h 0,4 km/h (0 Bft)
07.05.2010 17:00 16,3 C 8,1 C 0,3 UV-I 0,0 C 51 % 87 % 0 % 1007,4 hPa 0,2 l/m 0,4 km/h (0 Bft) 0,00 h 0,9 km/h (0 Bft)
07.05.2010 18:00 16,2 C 7,8 C 0,5 UV-I 0,0 C 51 % 89 % 0 % 1007,5 hPa 0,5 l/m 0,6 km/h (0 Bft) 0,00 h 0,6 km/h (0 Bft)
07.05.2010 19:00 16,2 C 7,7 C 0,3 UV-I 0,0 C 52 % 90 % 0 % 1007,9 hPa 0,2 l/m 0,0 km/h (0 Bft) 0,00 h 0,0 km/h (0 Bft)
07.05.2010 20:00 16,1 C 7,4 C 0,0 UV-I 0,0 C 52 % 91 % 0 % 1008,0 hPa 0,1 l/m 0,0 km/h (0 Bft) 0,00 h 0,0 km/h (0 Bft)
07.05.2010 21:00 15,9 C 7,1 C 0,0 UV-I 0,0 C 53 % 91 % 0 % 1008,2 hPa 0,1 l/m 0,0 km/h (0 Bft) 0,00 h 0,0 km/h (0 Bft)
07.05.2010 22:00 15,7 C 6,7 C 0,0 UV-I 0,0 C 54 % 92 % 0 % 1008,4 hPa 0,0 l/m 0,0 km/h (0 Bft) 0,00 h 0,0 km/h (0 Bft)
07.05.2010 23:00 15,6 C 6,7 C 0,0 UV-I 0,0 C 54 % 93 % 0 % 1008,2 hPa 0,0 l/m 0,0 km/h (0 Bft) 0,00 h 0,0 km/h (0 Bft)
08.05.2010 00:00 15,7 C 6,7 C 0,0 UV-I 0,0 C 54 % 93 % 0 % 1008,5 hPa 0,0 l/m 0,0 km/h (0 Bft) 0,00 h 0,0 km/h (0 Bft)
08.05.2010 01:00 15,7 C 6,7 C 0,0 UV-I 0,0 C 54 % 93 % 0 % 1008,4 hPa 0,0 l/m 0,0 km/h (0 Bft) 0,00 h 0,0 km/h (0 Bft)
08.05.2010 02:00 15,6 C 6,5 C 0,0 UV-I 0,0 C 54 % 93 % 0 % 1008,4 hPa 0,1 l/m 0,0 km/h (0 Bft) 0,00 h 0,0 km/h (0 Bft)
08.05.2010 03:00 15,6 C 6,4 C 0,0 UV-I 0,0 C 54 % 94 % 0 % 1008,5 hPa 0,0 l/m 0,0 km/h (0 Bft) 0,00 h 0,0 km/h (0 Bft)
08.05.2010 04:00 15,6 C 6,4 C 0,0 UV-I 0,0 C 54 % 94 % 0 % 1008,2 hPa 0,0 l/m 0,0 km/h (0 Bft) 0,00 h 0,0 km/h (0 Bft)
08.05.2010 05:00 15,6 C 6,5 C 0,0 UV-I 0,0 C 55 % 94 % 0 % 1008,4 hPa 0,0 l/m 0,0 km/h (0 Bft) 0,00 h 0,0 km/h (0 Bft)
08.05.2010 06:00 15,6 C 6,5 C 0,0 UV-I 0,0 C 55 % 95 % 0 % 1008,4 hPa 0,0 l/m 0,0 km/h (0 Bft) 0,00 h 0,0 km/h (0 Bft)
08.05.2010 07:00 15,6 C 6,9 C 0,1 UV-I 0,0 C 55 % 95 % 0 % 1008,5 hPa 0,0 l/m 0,0 km/h (0 Bft) 0,00 h 0,0 km/h (0 Bft)
08.05.2010 08:00 15,6 C 7,4 C 0,2 UV-I 0,0 C 55 % 95 % 0 % 1009,1 hPa 0,0 l/m 0,1 km/h (0 Bft) 0,00 h 0,4 km/h (0 Bft)
08.05.2010 09:00 15,7 C 8,0 C 0,6 UV-I 0,3 C 55 % 94 % 8 % 1009,2 hPa 0,0 l/m 0,1 km/h (0 Bft) 0,00 h 0,3 km/h (0 Bft)
08.05.2010 10:00 15,8 C 8,5 C 1,2 UV-I 0,7 C 55 % 92 % 20 % 1009,7 hPa 0,0 l/m 0,2 km/h (0 Bft) 0,00 h 0,2 km/h (0 Bft)
08.05.2010 11:00 16,0 C 9,3 C 2,4 UV-I 1,4 C 54 % 88 % 41 % 1009,7 hPa 0,0 l/m 0,9 km/h (0 Bft) 0,00 h 0,9 km/h (0 Bft)
08.05.2010 12:00 16,3 C 10,2 C 4,2 UV-I 2,6 C 54 % 84 % 73 % 1010,0 hPa 0,0 l/m 1,7 km/h (1 Bft) 0,30 h 2,1 km/h (1 Bft)
08.05.2010 13:00 16,6 C 11,3 C 5,4 UV-I 3,8 C 52 % 78 % 97 % 1010,3 hPa 0,0 l/m 1,6 km/h (1 Bft) 1,00 h 2,1 km/h (1 Bft)
08.05.2010 14:00 17,0 C 12,3 C 6,9 UV-I 4,7 C 52 % 71 % 100 % 1010,6 hPa 0,0 l/m 2,1 km/h (1 Bft) 1,00 h 3,2 km/h (1 Bft)
08.05.2010 15:00 17,5 C 12,9 C 3,7 UV-I 2,7 C 49 % 62 % 73 % 1010,8 hPa 0,0 l/m 2,3 km/h (1 Bft) 0,47 h 3,3 km/h (1 Bft)
08.05.2010 16:00 17,5 C 12,9 C 4,2 UV-I 2,2 C 48 % 61 % 63 % 1010,7 hPa 0,0 l/m 2,7 km/h (1 Bft) 0,00 h 3,5 km/h (1 Bft)
08.05.2010 17:00 18,3 C 13,7 C 6,3 UV-I 3,9 C 47 % 58 % 96 % 1011,6 hPa 0,0 l/m 3,5 km/h (1 Bft) 0,90 h 5,1 km/h (1 Bft)
08.05.2010 18:00 19,2 C 13,7 C 3,4 UV-I 2,9 C 45 % 58 % 71 % 1011,6 hPa 0,0 l/m 3,9 km/h (1 Bft) 0,50 h 4,6 km/h (1 Bft)
08.05.2010 19:00 18,8 C 13,1 C 1,4 UV-I 0,1 C 45 % 61 % 4 % 1010,6 hPa 0,0 l/m 3,3 km/h (1 Bft) 0,00 h 3,9 km/h (1 Bft)
08.05.2010 20:00 17,9 C 11,8 C 0,2 UV-I 0,0 C 47 % 66 % 0 % 1010,2 hPa 0,0 l/m 1,6 km/h (1 Bft) 0,00 h 1,0 km/h (0 Bft)
08.05.2010 21:00 17,2 C 9,9 C 0,0 UV-I 0,0 C 49 % 74 % 0 % 1010,5 hPa 0,0 l/m 0,0 km/h (0 Bft) 0,00 h 0,0 km/h (0 Bft)
08.05.2010 22:00 16,8 C 8,0 C 0,0 UV-I 0,0 C 50 % 81 % 0 % 1010,9 hPa 0,0 l/m 0,0 km/h (0 Bft) 0,00 h 0,0 km/h (0 Bft)
08.05.2010 23:00 16,3 C 6,7 C 0,0 UV-I 0,0 C 51 % 86 % 0 % 1010,7 hPa 0,0 l/m 0,0 km/h (0 Bft) 0,00 h 0,0 km/h (0 Bft)
09.05.2010 00:00 16,1 C 5,9 C 0,0 UV-I 0,0 C 52 % 89 % 0 % 1010,7 hPa 0,0 l/m 0,0 km/h (0 Bft) 0,00 h 0,0 km/h (0 Bft)
09.05.2010 01:00 15,9 C 5,5 C 0,0 UV-I 0,0 C 52 % 91 % 0 % 1010,4 hPa 0,0 l/m 0,0 km/h (0 Bft) 0,00 h 0,0 km/h (0 Bft)
09.05.2010 02:00 15,8 C 5,7 C 0,0 UV-I 0,0 C 52 % 92 % 0 % 1010,2 hPa 0,0 l/m 0,0 km/h (0 Bft) 0,00 h 0,1 km/h (0 Bft)
09.05.2010 03:00 15,8 C 6,1 C 0,0 UV-I 0,0 C 53 % 92 % 0 % 1010,2 hPa 0,0 l/m 0,3 km/h (0 Bft) 0,00 h 0,7 km/h (0 Bft)
09.05.2010 04:00 15,7 C 5,7 C 0,0 UV-I 0,0 C 53 % 92 % 0 % 1010,1 hPa 0,0 l/m 0,0 km/h (0 Bft) 0,00 h 0,0 km/h (0 Bft)
09.05.2010 05:00 15,6 C 5,6 C 0,0 UV-I 0,0 C 53 % 93 % 0 % 1009,7 hPa 0,0 l/m 0,0 km/h (0 Bft) 0,00 h 0,0 km/h (0 Bft)
09.05.2010 06:00 15,6 C 5,1 C 0,1 UV-I 0,0 C 53 % 93 % 0 % 1009,7 hPa 0,0 l/m 0,3 km/h (0 Bft) 0,00 h 0,5 km/h (0 Bft)
09.05.2010 07:00 15,6 C 5,5 C 0,6 UV-I 0,1 C 53 % 93 % 4 % 1009,9 hPa 0,0 l/m 0,1 km/h (0 Bft) 0,00 h 0,2 km/h (0 Bft)
09.05.2010 08:00 15,6 C 7,3 C 1,8 UV-I 2,0 C 53 % 93 % 47 % 1010,1 hPa 0,0 l/m 0,4 km/h (0 Bft) 0,33 h 0,8 km/h (0 Bft)
09.05.2010 09:00 15,8 C 9,9 C 5,2 UV-I 5,8 C 53 % 87 % 99 % 1010,1 hPa 0,0 l/m 3,4 km/h (1 Bft) 1,00 h 4,0 km/h (1 Bft)
09.05.2010 10:00 16,0 C 12,4 C 9,0 UV-I 6,3 C 53 % 75 % 100 % 1010,0 hPa 0,0 l/m 4,4 km/h (1 Bft) 1,00 h 5,7 km/h (1 Bft)
09.05.2010 11:00 16,4 C 13,9 C 8,8 UV-I 5,8 C 53 % 69 % 100 % 1009,9 hPa 0,0 l/m 7,2 km/h (2 Bft) 1,00 h 8,2 km/h (2 Bft)
09.05.2010 12:00 16,9 C 14,6 C 6,7 UV-I 4,3 C 52 % 62 % 97 % 1009,8 hPa 0,0 l/m 7,7 km/h (2 Bft) 0,93 h 8,1 km/h (2 Bft)
09.05.2010 13:00 17,5 C 15,1 C 6,8 UV-I 3,7 C 51 % 59 % 94 % 1009,8 hPa 0,0 l/m 7,9 km/h (2 Bft) 0,93 h 8,3 km/h (2 Bft)
09.05.2010 14:00 18,4 C 15,8 C 7,3 UV-I 4,7 C 49 % 57 % 100 % 1010,2 hPa 0,0 l/m 7,3 km/h (2 Bft) 0,97 h 6,2 km/h (2 Bft)
09.05.2010 15:00 18,8 C 15,4 C 3,6 UV-I 2,2 C 47 % 59 % 61 % 1010,1 hPa 0,0 l/m 9,9 km/h (2 Bft) 0,13 h 10,7 km/h (2 Bft)
09.05.2010 16:00 18,9 C 15,1 C 4,4 UV-I 2,1 C 47 % 62 % 55 % 1009,5 hPa 0,0 l/m 12,4 km/h (3 Bft) 0,33 h 13,2 km/h (3 Bft)
09.05.2010 17:00 20,0 C 15,4 C 5,8 UV-I 3,4 C 45 % 63 % 89 % 1010,8 hPa 0,0 l/m 13,8 km/h (3 Bft) 0,60 h 14,8 km/h (3 Bft)
09.05.2010 18:00 20,0 C 14,1 C 2,7 UV-I 0,9 C 45 % 67 % 25 % 1009,9 hPa 0,0 l/m 13,6 km/h (3 Bft) 0,00 h 13,5 km/h (3 Bft)
09.05.2010 19:00 19,3 C 12,9 C 0,7 UV-I 0,1 C 46 % 73 % 3 % 1009,0 hPa 0,0 l/m 12,1 km/h (2 Bft) 0,00 h 12,0 km/h (2 Bft)
09.05.2010 20:00 18,5 C 12,0 C 0,0 UV-I 0,0 C 47 % 75 % 0 % 1008,9 hPa 0,0 l/m 7,8 km/h (2 Bft) 0,00 h 7,7 km/h (2 Bft)
09.05.2010 21:00 17,9 C 11,1 C 0,0 UV-I 0,0 C 49 % 78 % 0 % 1008,9 hPa 0,0 l/m 7,4 km/h (2 Bft) 0,00 h 7,2 km/h (2 Bft)
09.05.2010 22:00 17,4 C 10,6 C 0,0 UV-I 0,0 C 51 % 81 % 0 % 1008,8 hPa 0,0 l/m 6,7 km/h (2 Bft) 0,00 h 7,4 km/h (2 Bft)
09.05.2010 23:00 17,1 C 10,4 C 0,0 UV-I 0,0 C 52 % 80 % 0 % 1008,8 hPa 0,0 l/m 9,3 km/h (2 Bft) 0,00 h 9,9 km/h (2 Bft)
Min-Datum _ 09.05.10 05.05.10 03.05.10 03.05.10 05.05.10 04.05.10 03.05.10 06.05.10 - 03.05.10 - 03.05.10
_ Min-Zeit 07:24 06:06 00:00 00:00 17:04 17:42 00:00 14:32 - 00:00 - 00:00
Minimum _ 15,4 C 1,4 C 0,0 UV-I 0,0 C 34 % 45 % 0 % 1005,1 hPa - 0,0 km/h (0 Bft) - 0,0 km/h (0 Bft)
Max-Datum _ 05.05.10 09.05.10 05.05.10 09.05.10 08.05.10 03.05.10 03.05.10 04.05.10 06.05.10 05.05.10 03.05.10 05.05.10
_ Max-Zeit 17:26 14:40 16:50 10:46 05:06 04:28 12:22 17:52 23:22 16:22 12:18 17:10
Maximum _ 22,3 C 16,5 C 11,9 UV-I 7,6 C 55 % 95 % 100 % 1025,2 hPa 1,2 l/m 24,9 km/h
S (4 Bft)
0,03 h 55,4 km/h
S (7 Bft)
Durchschnitt _ 17,1 C 8,5 C 1,7 UV-I 0,8 C 49 % 80 % 21 % 1012,3 hPa #12,6 l/m 6,4 km/h (2 Bft) #21:06 h 7,7 km/h (2 Bft)
© 2012 W. Hausmann